Xingtai, China
Current Conditions -  °F | °C
As of 7:00 AM on Thursday 27 Nov 2014 (Local Time) from ZBSJ Reporting Station
Moderate Fog Moderate Fog  
Wind Chill: 32°   Ceiling: 1600
Heat Index: 36°   Visibility: 0.31mi
Dew Point: 36°   Wind: 4mph
Humidity: 100%   Direction: 270°W
Pressure: 30.18"   Gusts: NA
Location:  37.07°N, 114.49°E
Report Text: ZBSJ 262300Z 27002MPS 0500 R33/0900N FG VV016 02/02 Q1022 NOSIG
Loading
Personal Weather Stations






























Interactive Weather Map New forecast layout! Learn more

10-Day Weather Forecast

Advertisements
Track Severe Weather on mobile